createdAt,value
2023-03-24T00:04:36.146Z,99702.66
2023-03-24T00:09:37.873Z,99702.09
2023-03-24T00:14:40.500Z,99703.56
2023-03-24T00:19:42.079Z,99698.93
2023-03-24T00:24:46.461Z,99700.80
2023-03-24T00:29:47.989Z,99705.67
2023-03-24T00:34:49.597Z,99702.55
2023-03-24T00:39:51.956Z,99702.84
2023-03-24T00:44:53.967Z,99708.81
2023-03-24T00:49:57.885Z,99710.48
2023-03-24T00:55:02.010Z,99702.33
2023-03-24T01:00:17.256Z,99702.54
2023-03-24T01:05:23.380Z,99693.75
2023-03-24T01:10:30.065Z,99692.89
2023-03-24T01:15:34.397Z,99692.42
2023-03-24T01:20:36.512Z,99692.23
2023-03-24T01:25:38.882Z,99692.50
2023-03-24T01:30:40.689Z,99691.62
2023-03-24T01:35:42.256Z,99688.35
2023-03-24T01:40:47.291Z,99685.02
2023-03-24T01:46:08.499Z,99693.86
2023-03-24T01:51:17.139Z,99698.81
2023-03-24T01:56:19.181Z,99691.94
2023-03-24T02:01:22.055Z,99687.14
2023-03-24T02:06:26.246Z,99678.03
2023-03-24T02:11:31.731Z,99673.63
2023-03-24T02:16:39.169Z,99675.54
2023-03-24T02:21:52.992Z,99679.05
2023-03-24T02:27:06.845Z,99669.33
2023-03-24T02:32:43.916Z,99665.13
2023-03-24T02:38:29.432Z,99659.44
2023-03-24T02:43:54.467Z,99652.71
2023-03-24T02:49:27.357Z,99647.72
2023-03-24T02:54:57.617Z,99649.25
2023-03-24T03:00:10.194Z,99653.70
2023-03-24T03:05:19.290Z,99658.80
2023-03-24T03:10:29.413Z,99663.02
2023-03-24T03:15:44.692Z,99664.28
2023-03-24T03:20:53.249Z,99666.30
2023-03-24T03:26:06.021Z,99669.17
2023-03-24T03:31:15.000Z,99674.43
2023-03-24T03:36:32.724Z,99670.42
2023-03-24T03:41:34.332Z,99663.48
2023-03-24T03:46:36.682Z,99665.48
2023-03-24T03:51:39.344Z,99664.88
2023-03-24T03:56:42.329Z,99666.05
2023-03-24T04:01:43.948Z,99670.20
2023-03-24T04:07:10.760Z,99667.70
2023-03-24T04:12:30.975Z,99666.93
2023-03-24T04:18:04.908Z,99661.11
2023-03-24T04:23:14.848Z,99664.38
2023-03-24T04:28:42.425Z,99663.41
2023-03-24T04:33:49.041Z,99652.38
2023-03-24T04:38:57.218Z,99648.83
2023-03-24T04:43:59.927Z,99650.42
2023-03-24T04:49:03.026Z,99645.45
2023-03-24T04:54:04.598Z,99645.53
2023-03-24T04:59:07.364Z,99650.05
2023-03-24T05:04:10.313Z,99631.10
2023-03-24T05:09:12.672Z,99632.80
2023-03-24T05:14:14.933Z,99629.68
2023-03-24T05:19:17.041Z,99627.27
2023-03-24T05:24:18.589Z,99621.14
2023-03-24T05:29:20.325Z,99620.85
2023-03-24T05:34:22.713Z,99614.99
2023-03-24T05:39:24.375Z,99610.69
2023-03-24T05:44:25.916Z,99605.91
2023-03-24T05:49:27.440Z,99606.44
2023-03-24T05:54:28.924Z,99603.55
2023-03-24T05:59:31.019Z,99605.32
2023-03-24T06:04:32.731Z,99608.85
2023-03-24T06:09:38.245Z,99608.56
2023-03-24T06:14:41.360Z,99603.65
2023-03-24T06:19:49.975Z,99609.04
2023-03-24T06:24:53.922Z,99606.94
2023-03-24T06:29:58.860Z,99605.23
2023-03-24T06:35:00.420Z,99603.56
2023-03-24T06:40:02.124Z,99607.29
2023-03-24T06:45:04.649Z,99607.00
2023-03-24T06:50:10.034Z,99601.55
2023-03-24T06:55:11.672Z,99602.48
2023-03-24T07:00:13.772Z,99601.73
2023-03-24T07:05:15.345Z,99605.78
2023-03-24T07:10:16.880Z,99611.85
2023-03-24T07:15:18.442Z,99611.14
2023-03-24T07:20:20.699Z,99607.79
2023-03-24T07:25:22.421Z,99604.98
2023-03-24T07:30:37.280Z,99610.48
2023-03-24T07:35:41.818Z,99609.87
2023-03-24T07:40:43.749Z,99607.66
2023-03-24T07:45:46.541Z,99607.21
2023-03-24T07:50:48.379Z,99602.15
2023-03-24T07:55:50.020Z,99600.69
2023-03-24T08:00:51.908Z,99595.67
2023-03-24T08:05:55.260Z,99591.95
2023-03-24T08:10:57.361Z,99583.09
2023-03-24T08:15:58.852Z,99578.00
2023-03-24T08:21:02.314Z,99572.48
2023-03-24T08:26:03.871Z,99568.80
2023-03-24T08:31:05.583Z,99565.27
2023-03-24T08:36:08.241Z,99553.92
2023-03-24T08:41:09.952Z,99550.70
2023-03-24T08:46:13.667Z,99545.11
2023-03-24T08:51:17.473Z,99534.48
2023-03-24T08:56:19.246Z,99520.64
2023-03-24T09:01:22.846Z,99507.98
2023-03-24T09:06:24.663Z,99498.70
2023-03-24T09:11:26.292Z,99496.23
2023-03-24T09:16:28.233Z,99486.06
2023-03-24T09:21:30.810Z,99476.09
2023-03-24T09:26:33.906Z,99472.27
2023-03-24T09:31:35.464Z,99469.27
2023-03-24T09:36:37.032Z,99471.48
2023-03-24T09:41:38.532Z,99454.09
2023-03-24T09:46:58.377Z,99446.29
2023-03-24T09:52:11.023Z,99434.42
2023-03-24T09:57:24.128Z,99433.46
2023-03-24T10:02:28.791Z,99430.52
2023-03-24T10:08:08.537Z,99416.85
2023-03-24T10:13:54.262Z,99410.91
2023-03-24T10:19:00.174Z,99408.24
2023-03-24T10:24:17.713Z,99406.67
2023-03-24T10:29:32.920Z,99402.23
2023-03-24T10:34:35.233Z,99394.55
2023-03-24T10:39:44.799Z,99394.27
2023-03-24T10:44:49.748Z,99393.25
2023-03-24T10:49:58.084Z,99394.80
2023-03-24T10:55:06.414Z,99386.89
2023-03-24T11:00:19.433Z,99379.84
2023-03-24T11:05:29.037Z,99378.45
2023-03-24T11:10:30.724Z,99379.97
2023-03-24T11:15:34.913Z,99371.52
2023-03-24T11:20:39.202Z,99364.35
2023-03-24T11:25:44.268Z,99351.77
2023-03-24T11:30:48.586Z,99347.77
2023-03-24T11:35:59.291Z,99337.94
2023-03-24T11:41:21.999Z,99337.98
2023-03-24T11:46:27.046Z,99331.10
2023-03-24T11:51:37.784Z,99316.81
2023-03-24T11:56:46.960Z,99310.98
2023-03-24T12:01:57.814Z,99307.63
2023-03-24T12:07:14.688Z,99300.52
2023-03-24T12:12:36.526Z,99292.52
2023-03-24T12:17:43.128Z,99286.09
2023-03-24T12:22:58.057Z,99277.08
2023-03-24T12:28:08.634Z,99275.70
2023-03-24T12:33:23.620Z,99270.55
2023-03-24T12:38:37.393Z,99258.77
2023-03-24T12:43:59.302Z,99250.84
2023-03-24T12:49:23.736Z,99248.52
2023-03-24T12:54:32.154Z,99239.95
2023-03-24T12:59:41.609Z,99236.11
2023-03-24T13:04:48.484Z,99223.73
2023-03-24T13:10:06.892Z,99219.64
2023-03-24T13:15:26.038Z,99208.23
2023-03-24T13:20:36.986Z,99200.16
2023-03-24T13:25:53.476Z,99192.48
2023-03-24T13:30:56.881Z,99186.40
2023-03-24T13:35:58.597Z,99181.70
2023-03-24T13:41:05.111Z,99177.89
2023-03-24T13:46:13.579Z,99171.71
2023-03-24T13:51:15.410Z,99161.55
2023-03-24T13:56:27.849Z,99159.36
2023-03-24T14:01:39.233Z,99156.77
2023-03-24T14:06:47.571Z,99147.42
2023-03-24T14:12:08.669Z,99146.35
2023-03-24T14:17:17.518Z,99135.98
2023-03-24T14:22:23.241Z,99141.36
2023-03-24T14:27:42.652Z,99129.14
2023-03-24T14:32:47.818Z,99125.61
2023-03-24T14:38:00.164Z,99125.90
2023-03-24T14:43:35.880Z,99122.98
2023-03-24T14:48:57.196Z,99115.69
2023-03-24T14:53:59.526Z,99101.82
2023-03-24T14:59:09.305Z,99094.00
2023-03-24T15:04:11.679Z,99087.45
2023-03-24T15:09:15.540Z,99081.83
2023-03-24T15:14:24.501Z,99079.56
2023-03-24T15:19:29.629Z,99075.59
2023-03-24T15:24:38.231Z,99070.80
2023-03-24T15:29:42.612Z,99067.30
2023-03-24T15:34:50.694Z,99059.02
2023-03-24T15:40:01.799Z,99054.67
2023-03-24T15:45:16.180Z,99058.76
2023-03-24T15:50:39.272Z,99055.00
2023-03-24T15:55:43.275Z,99052.29
2023-03-24T16:00:46.189Z,99057.98
2023-03-24T16:05:51.269Z,99057.22
2023-03-24T16:11:07.064Z,99050.40
2023-03-24T16:16:24.642Z,99040.41
2023-03-24T16:21:29.640Z,99037.16
2023-03-24T16:26:32.838Z,99040.13
2023-03-24T16:31:35.548Z,99039.55
2023-03-24T16:36:37.220Z,99031.91
2023-03-24T16:41:38.747Z,99033.46
2023-03-24T16:46:41.289Z,99031.98
2023-03-24T16:51:43.312Z,99032.08
2023-03-24T16:56:44.879Z,99037.98
2023-03-24T17:01:47.290Z,99043.07
2023-03-24T17:06:52.796Z,99045.92
2023-03-24T17:11:57.561Z,99054.54
2023-03-24T17:16:59.721Z,99069.95
2023-03-24T17:22:04.064Z,99088.86
2023-03-24T17:27:13.090Z,99100.95
2023-03-24T17:32:14.805Z,99104.02
2023-03-24T17:37:16.637Z,99117.38
2023-03-24T17:42:18.183Z,99128.37
2023-03-24T17:47:19.705Z,99138.80
2023-03-24T17:52:21.357Z,99143.52
2023-03-24T17:57:23.601Z,99158.31
2023-03-24T18:02:25.203Z,99164.41
2023-03-24T18:07:27.241Z,99161.74
2023-03-24T18:12:28.816Z,99158.95
2023-03-24T18:17:30.743Z,99164.49
2023-03-24T18:22:32.684Z,99162.42
2023-03-24T18:27:35.144Z,99151.98
2023-03-24T18:32:39.013Z,99146.30
2023-03-24T18:37:40.705Z,99134.67
2023-03-24T18:42:42.236Z,99125.92
2023-03-24T18:47:45.864Z,99126.55
2023-03-24T18:52:47.410Z,99139.59
2023-03-24T18:57:48.992Z,99129.44
2023-03-24T19:02:52.457Z,99126.38
2023-03-24T19:07:54.117Z,99125.06
2023-03-24T19:12:56.139Z,99129.79
2023-03-24T19:18:00.437Z,99116.15
2023-03-24T19:23:04.091Z,99108.63
2023-03-24T19:28:06.154Z,99110.06
2023-03-24T19:33:08.704Z,99089.10
2023-03-24T19:38:10.618Z,99092.77
2023-03-24T19:43:12.531Z,99098.14
2023-03-24T19:48:14.100Z,99096.49
2023-03-24T19:53:15.725Z,99082.23
2023-03-24T19:58:17.710Z,99084.92
2023-03-24T20:03:19.538Z,99076.80
2023-03-24T20:08:21.595Z,99075.49
2023-03-24T20:13:25.811Z,99080.22
2023-03-24T20:18:27.530Z,99079.83
2023-03-24T20:23:29.071Z,99082.73
2023-03-24T20:28:30.583Z,99081.90
2023-03-24T20:33:32.504Z,99084.79
2023-03-24T20:38:34.047Z,99089.58
2023-03-24T20:43:37.789Z,99088.25
2023-03-24T20:48:39.305Z,99083.79
2023-03-24T20:53:40.796Z,99083.43
2023-03-24T20:58:45.131Z,99081.60
2023-03-24T21:03:48.227Z,99082.89
2023-03-24T21:08:49.804Z,99080.63
2023-03-24T21:13:51.309Z,99090.02
2023-03-24T21:18:54.276Z,99085.42
2023-03-24T21:23:57.589Z,99127.02
2023-03-24T21:28:59.280Z,99130.27
2023-03-24T21:34:00.796Z,99137.93
2023-03-24T21:39:02.316Z,99157.33
2023-03-24T21:44:03.899Z,99175.83
2023-03-24T21:49:05.532Z,99174.33
2023-03-24T21:54:08.874Z,99157.92
2023-03-24T21:59:11.716Z,99149.50
2023-03-24T22:04:13.533Z,99131.77
2023-03-24T22:09:18.855Z,99126.95
2023-03-24T22:14:21.184Z,99137.65
2023-03-24T22:19:22.931Z,99145.38
2023-03-24T22:24:24.708Z,99149.91
2023-03-24T22:29:26.453Z,99156.41
2023-03-24T22:34:28.295Z,99154.73
2023-03-24T22:39:29.849Z,99141.81
2023-03-24T22:44:32.224Z,99152.02
2023-03-24T22:49:33.988Z,99149.23
2023-03-24T22:54:35.577Z,99164.56
2023-03-24T22:59:37.074Z,99182.95
2023-03-24T23:04:40.600Z,99193.06
2023-03-24T23:09:42.980Z,99203.25
2023-03-24T23:14:46.568Z,99200.39
2023-03-24T23:19:48.117Z,99193.80
2023-03-24T23:24:53.722Z,99193.02
2023-03-24T23:30:09.109Z,99196.30
2023-03-24T23:35:11.341Z,99203.33
2023-03-24T23:40:15.470Z,99207.70
2023-03-24T23:45:20.226Z,99211.84
2023-03-24T23:50:21.698Z,99207.10
2023-03-24T23:55:23.238Z,99206.35
